sensor_id;sensor_type;location;lat;lon;timestamp;P1;durP1;ratioP1;P2;durP2;ratioP2
45728;SDS011;31439;53.512;10.206;2023-02-28T00:00:51;9.45;;;5.10;;
45728;SDS011;31439;53.512;10.206;2023-02-28T00:03:17;10.50;;;5.10;;
45728;SDS011;31439;53.512;10.206;2023-02-28T00:05:42;10.50;;;5.40;;
45728;SDS011;31439;53.512;10.206;2023-02-28T00:08:08;9.75;;;4.85;;
45728;SDS011;31439;53.512;10.206;2023-02-28T00:10:34;14.90;;;5.90;;
45728;SDS011;31439;53.512;10.206;2023-02-28T00:13:02;9.45;;;4.90;;
45728;SDS011;31439;53.512;10.206;2023-02-28T00:15:30;6.75;;;4.50;;
45728;SDS011;31439;53.512;10.206;2023-02-28T00:17:56;11.25;;;5.53;;
45728;SDS011;31439;53.512;10.206;2023-02-28T00:20:22;10.55;;;4.85;;
45728;SDS011;31439;53.512;10.206;2023-02-28T00:22:49;11.80;;;5.47;;
45728;SDS011;31439;53.512;10.206;2023-02-28T00:25:21;8.65;;;4.60;;
45728;SDS011;31439;53.512;10.206;2023-02-28T00:27:48;12.70;;;5.32;;
45728;SDS011;31439;53.512;10.206;2023-02-28T00:30:18;12.05;;;5.40;;
45728;SDS011;31439;53.512;10.206;2023-02-28T00:32:46;14.38;;;5.95;;
45728;SDS011;31439;53.512;10.206;2023-02-28T00:35:12;10.73;;;5.80;;
45728;SDS011;31439;53.512;10.206;2023-02-28T00:37:38;10.02;;;5.55;;
45728;SDS011;31439;53.512;10.206;2023-02-28T00:40:03;10.95;;;5.55;;
45728;SDS011;31439;53.512;10.206;2023-02-28T00:42:31;12.30;;;5.53;;
45728;SDS011;31439;53.512;10.206;2023-02-28T00:44:56;11.50;;;5.80;;
45728;SDS011;31439;53.512;10.206;2023-02-28T00:47:22;8.88;;;5.40;;
45728;SDS011;31439;53.512;10.206;2023-02-28T00:49:48;10.43;;;5.45;;
45728;SDS011;31439;53.512;10.206;2023-02-28T00:52:13;9.52;;;5.55;;
45728;SDS011;31439;53.512;10.206;2023-02-28T00:54:39;11.63;;;5.35;;
45728;SDS011;31439;53.512;10.206;2023-02-28T00:57:04;10.55;;;5.60;;
45728;SDS011;31439;53.512;10.206;2023-02-28T00:59:30;11.93;;;5.78;;
45728;SDS011;31439;53.512;10.206;2023-02-28T01:01:56;11.15;;;5.88;;
45728;SDS011;31439;53.512;10.206;2023-02-28T01:04:21;10.20;;;5.97;;
45728;SDS011;31439;53.512;10.206;2023-02-28T01:06:47;9.98;;;5.75;;
45728;SDS011;31439;53.512;10.206;2023-02-28T01:09:13;11.15;;;6.22;;
45728;SDS011;31439;53.512;10.206;2023-02-28T01:11:38;12.10;;;6.35;;
45728;SDS011;31439;53.512;10.206;2023-02-28T01:14:06;12.52;;;6.80;;
45728;SDS011;31439;53.512;10.206;2023-02-28T01:16:33;13.15;;;6.68;;
45728;SDS011;31439;53.512;10.206;2023-02-28T01:18:59;12.18;;;6.40;;
45728;SDS011;31439;53.512;10.206;2023-02-28T01:21:24;14.93;;;6.53;;
45728;SDS011;31439;53.512;10.206;2023-02-28T01:23:50;12.73;;;5.78;;
45728;SDS011;31439;53.512;10.206;2023-02-28T01:26:20;16.48;;;6.38;;
45728;SDS011;31439;53.512;10.206;2023-02-28T01:28:47;9.93;;;5.63;;
45728;SDS011;31439;53.512;10.206;2023-02-28T01:31:14;10.15;;;5.45;;
45728;SDS011;31439;53.512;10.206;2023-02-28T01:33:40;11.18;;;5.60;;
45728;SDS011;31439;53.512;10.206;2023-02-28T01:36:07;11.88;;;5.78;;
45728;SDS011;31439;53.512;10.206;2023-02-28T01:38:42;11.07;;;5.88;;
45728;SDS011;31439;53.512;10.206;2023-02-28T01:41:08;8.55;;;5.32;;
45728;SDS011;31439;53.512;10.206;2023-02-28T01:46:08;13.07;;;6.43;;
45728;SDS011;31439;53.512;10.206;2023-02-28T01:48:35;9.90;;;5.28;;
45728;SDS011;31439;53.512;10.206;2023-02-28T01:51:11;9.93;;;5.80;;
45728;SDS011;31439;53.512;10.206;2023-02-28T01:53:44;10.68;;;5.40;;
45728;SDS011;31439;53.512;10.206;2023-02-28T01:56:12;11.23;;;5.72;;
45728;SDS011;31439;53.512;10.206;2023-02-28T01:58:45;12.15;;;5.57;;
45728;SDS011;31439;53.512;10.206;2023-02-28T02:01:12;10.93;;;5.32;;
45728;SDS011;31439;53.512;10.206;2023-02-28T02:03:46;12.40;;;5.68;;
45728;SDS011;31439;53.512;10.206;2023-02-28T02:06:40;9.48;;;5.30;;
45728;SDS011;31439;53.512;10.206;2023-02-28T02:09:09;9.63;;;5.25;;
45728;SDS011;31439;53.512;10.206;2023-02-28T02:11:35;11.30;;;5.07;;
45728;SDS011;31439;53.512;10.206;2023-02-28T02:27:26;11.15;;;4.10;;
45728;SDS011;31439;53.512;10.206;2023-02-28T02:35:49;9.27;;;4.28;;
45728;SDS011;31439;53.512;10.206;2023-02-28T02:38:47;9.25;;;4.15;;
45728;SDS011;31439;53.512;10.206;2023-02-28T02:44:47;8.20;;;4.22;;
45728;SDS011;31439;53.512;10.206;2023-02-28T02:46:58;9.27;;;3.95;;
45728;SDS011;31439;53.512;10.206;2023-02-28T02:49:37;7.15;;;3.90;;
45728;SDS011;31439;53.512;10.206;2023-02-28T02:52:06;8.23;;;4.35;;
45728;SDS011;31439;53.512;10.206;2023-02-28T02:54:35;9.27;;;4.03;;
45728;SDS011;31439;53.512;10.206;2023-02-28T02:57:05;8.68;;;4.35;;
45728;SDS011;31439;53.512;10.206;2023-02-28T02:59:33;11.38;;;4.50;;
45728;SDS011;31439;53.512;10.206;2023-02-28T03:02:04;11.80;;;4.72;;
45728;SDS011;31439;53.512;10.206;2023-02-28T03:04:34;10.70;;;4.68;;
45728;SDS011;31439;53.512;10.206;2023-02-28T03:07:05;8.88;;;4.70;;
45728;SDS011;31439;53.512;10.206;2023-02-28T03:09:32;10.05;;;5.00;;
45728;SDS011;31439;53.512;10.206;2023-02-28T03:11:58;9.70;;;4.70;;
45728;SDS011;31439;53.512;10.206;2023-02-28T03:14:43;8.27;;;4.40;;
45728;SDS011;31439;53.512;10.206;2023-02-28T03:23:21;8.02;;;4.72;;
45728;SDS011;31439;53.512;10.206;2023-02-28T03:25:56;10.23;;;4.75;;
45728;SDS011;31439;53.512;10.206;2023-02-28T03:28:37;10.40;;;4.95;;
45728;SDS011;31439;53.512;10.206;2023-02-28T03:36:20;10.88;;;4.47;;
45728;SDS011;31439;53.512;10.206;2023-02-28T03:41:30;11.05;;;5.22;;
45728;SDS011;31439;53.512;10.206;2023-02-28T03:44:13;9.70;;;4.25;;
45728;SDS011;31439;53.512;10.206;2023-02-28T03:46:48;7.50;;;3.97;;
45728;SDS011;31439;53.512;10.206;2023-02-28T03:49:42;7.75;;;4.13;;
45728;SDS011;31439;53.512;10.206;2023-02-28T03:52:22;9.40;;;4.40;;
45728;SDS011;31439;53.512;10.206;2023-02-28T03:54:53;7.88;;;3.80;;
45728;SDS011;31439;53.512;10.206;2023-02-28T03:57:32;8.75;;;4.15;;
45728;SDS011;31439;53.512;10.206;2023-02-28T03:59:59;8.48;;;3.95;;
45728;SDS011;31439;53.512;10.206;2023-02-28T04:02:31;9.07;;;4.53;;
45728;SDS011;31439;53.512;10.206;2023-02-28T04:04:57;10.07;;;4.50;;
45728;SDS011;31439;53.512;10.206;2023-02-28T04:07:24;8.73;;;4.35;;
45728;SDS011;31439;53.512;10.206;2023-02-28T04:09:53;6.78;;;4.03;;
45728;SDS011;31439;53.512;10.206;2023-02-28T04:12:19;10.07;;;4.82;;
45728;SDS011;31439;53.512;10.206;2023-02-28T04:14:46;8.65;;;4.45;;
45728;SDS011;31439;53.512;10.206;2023-02-28T04:17:11;9.13;;;4.53;;
45728;SDS011;31439;53.512;10.206;2023-02-28T04:19:37;9.05;;;4.43;;
45728;SDS011;31439;53.512;10.206;2023-02-28T04:22:02;9.80;;;4.65;;
45728;SDS011;31439;53.512;10.206;2023-02-28T04:24:28;9.13;;;5.18;;
45728;SDS011;31439;53.512;10.206;2023-02-28T04:26:54;8.05;;;4.75;;
45728;SDS011;31439;53.512;10.206;2023-02-28T04:31:55;8.75;;;4.30;;
45728;SDS011;31439;53.512;10.206;2023-02-28T04:34:23;7.03;;;4.00;;
45728;SDS011;31439;53.512;10.206;2023-02-28T04:36:49;7.85;;;4.40;;
45728;SDS011;31439;53.512;10.206;2023-02-28T04:39:16;10.40;;;4.55;;
45728;SDS011;31439;53.512;10.206;2023-02-28T04:41:43;7.88;;;4.13;;
45728;SDS011;31439;53.512;10.206;2023-02-28T04:44:12;9.85;;;5.88;;
45728;SDS011;31439;53.512;10.206;2023-02-28T04:46:38;9.60;;;4.60;;
45728;SDS011;31439;53.512;10.206;2023-02-28T04:49:04;8.70;;;4.47;;
45728;SDS011;31439;53.512;10.206;2023-02-28T04:51:29;8.15;;;4.63;;
45728;SDS011;31439;53.512;10.206;2023-02-28T04:53:56;9.57;;;4.60;;
45728;SDS011;31439;53.512;10.206;2023-02-28T04:56:22;7.22;;;4.38;;
45728;SDS011;31439;53.512;10.206;2023-02-28T04:58:47;8.48;;;4.60;;
45728;SDS011;31439;53.512;10.206;2023-02-28T05:01:35;10.07;;;4.30;;
45728;SDS011;31439;53.512;10.206;2023-02-28T05:04:01;8.82;;;4.40;;
45728;SDS011;31439;53.512;10.206;2023-02-28T05:06:29;8.30;;;4.45;;
45728;SDS011;31439;53.512;10.206;2023-02-28T05:08:56;9.82;;;4.70;;
45728;SDS011;31439;53.512;10.206;2023-02-28T05:11:26;8.25;;;4.43;;
45728;SDS011;31439;53.512;10.206;2023-02-28T05:13:59;9.80;;;4.50;;
45728;SDS011;31439;53.512;10.206;2023-02-28T05:16:26;16.50;;;9.18;;
45728;SDS011;31439;53.512;10.206;2023-02-28T05:18:51;15.35;;;7.78;;
45728;SDS011;31439;53.512;10.206;2023-02-28T05:21:34;12.15;;;6.07;;
45728;SDS011;31439;53.512;10.206;2023-02-28T05:24:05;7.97;;;4.35;;
45728;SDS011;31439;53.512;10.206;2023-02-28T05:26:35;6.30;;;4.30;;
45728;SDS011;31439;53.512;10.206;2023-02-28T05:29:02;9.27;;;4.47;;
45728;SDS011;31439;53.512;10.206;2023-02-28T05:31:27;7.40;;;3.72;;
45728;SDS011;31439;53.512;10.206;2023-02-28T05:33:53;9.63;;;4.20;;
45728;SDS011;31439;53.512;10.206;2023-02-28T05:36:19;8.50;;;4.75;;
45728;SDS011;31439;53.512;10.206;2023-02-28T05:38:48;7.60;;;4.35;;
45728;SDS011;31439;53.512;10.206;2023-02-28T05:41:15;11.27;;;4.78;;
45728;SDS011;31439;53.512;10.206;2023-02-28T05:43:41;7.70;;;4.78;;
45728;SDS011;31439;53.512;10.206;2023-02-28T05:46:13;10.30;;;5.10;;
45728;SDS011;31439;53.512;10.206;2023-02-28T05:48:39;10.23;;;4.65;;
45728;SDS011;31439;53.512;10.206;2023-02-28T05:51:09;11.10;;;4.70;;
45728;SDS011;31439;53.512;10.206;2023-02-28T05:53:34;13.18;;;5.18;;
45728;SDS011;31439;53.512;10.206;2023-02-28T05:56:00;8.32;;;4.75;;
45728;SDS011;31439;53.512;10.206;2023-02-28T05:58:33;10.45;;;4.95;;
45728;SDS011;31439;53.512;10.206;2023-02-28T06:01:00;9.30;;;4.88;;
45728;SDS011;31439;53.512;10.206;2023-02-28T06:03:44;6.17;;;4.30;;
45728;SDS011;31439;53.512;10.206;2023-02-28T06:06:09;7.57;;;4.50;;
45728;SDS011;31439;53.512;10.206;2023-02-28T06:08:35;8.18;;;4.20;;
45728;SDS011;31439;53.512;10.206;2023-02-28T06:11:02;8.50;;;4.65;;
45728;SDS011;31439;53.512;10.206;2023-02-28T06:13:29;9.65;;;5.40;;
45728;SDS011;31439;53.512;10.206;2023-02-28T06:15:54;13.73;;;5.72;;
45728;SDS011;31439;53.512;10.206;2023-02-28T06:18:20;8.45;;;4.78;;
45728;SDS011;31439;53.512;10.206;2023-02-28T06:20:52;7.38;;;4.03;;
45728;SDS011;31439;53.512;10.206;2023-02-28T06:23:19;7.47;;;4.18;;
45728;SDS011;31439;53.512;10.206;2023-02-28T06:25:45;9.13;;;4.47;;
45728;SDS011;31439;53.512;10.206;2023-02-28T06:28:11;9.23;;;4.43;;
45728;SDS011;31439;53.512;10.206;2023-02-28T06:30:37;8.38;;;4.28;;
45728;SDS011;31439;53.512;10.206;2023-02-28T06:33:03;10.30;;;4.70;;
45728;SDS011;31439;53.512;10.206;2023-02-28T06:35:29;10.23;;;4.78;;
45728;SDS011;31439;53.512;10.206;2023-02-28T06:37:54;10.15;;;5.18;;
45728;SDS011;31439;53.512;10.206;2023-02-28T06:40:20;11.93;;;5.13;;
45728;SDS011;31439;53.512;10.206;2023-02-28T06:42:46;8.88;;;4.75;;
45728;SDS011;31439;53.512;10.206;2023-02-28T06:45:12;10.88;;;5.35;;
45728;SDS011;31439;53.512;10.206;2023-02-28T06:47:40;10.98;;;5.40;;
45728;SDS011;31439;53.512;10.206;2023-02-28T06:50:08;11.10;;;5.10;;
45728;SDS011;31439;53.512;10.206;2023-02-28T06:52:35;10.48;;;5.30;;
45728;SDS011;31439;53.512;10.206;2023-02-28T06:55:05;8.68;;;4.75;;
45728;SDS011;31439;53.512;10.206;2023-02-28T06:57:51;10.63;;;5.07;;
45728;SDS011;31439;53.512;10.206;2023-02-28T07:00:16;11.77;;;5.07;;
45728;SDS011;31439;53.512;10.206;2023-02-28T07:02:42;10.98;;;5.35;;
45728;SDS011;31439;53.512;10.206;2023-02-28T07:05:08;7.95;;;4.72;;
45728;SDS011;31439;53.512;10.206;2023-02-28T07:07:34;13.45;;;4.60;;
45728;SDS011;31439;53.512;10.206;2023-02-28T07:10:01;13.68;;;5.25;;
45728;SDS011;31439;53.512;10.206;2023-02-28T07:12:27;11.23;;;4.78;;
45728;SDS011;31439;53.512;10.206;2023-02-28T07:14:52;11.02;;;4.88;;
45728;SDS011;31439;53.512;10.206;2023-02-28T07:17:19;8.35;;;4.32;;
45728;SDS011;31439;53.512;10.206;2023-02-28T07:19:45;14.45;;;5.63;;
45728;SDS011;31439;53.512;10.206;2023-02-28T07:22:10;10.95;;;6.03;;
45728;SDS011;31439;53.512;10.206;2023-02-28T07:24:36;11.27;;;5.57;;
45728;SDS011;31439;53.512;10.206;2023-02-28T07:27:03;12.85;;;6.18;;
45728;SDS011;31439;53.512;10.206;2023-02-28T07:29:28;12.45;;;5.68;;
45728;SDS011;31439;53.512;10.206;2023-02-28T07:31:54;11.60;;;6.03;;
45728;SDS011;31439;53.512;10.206;2023-02-28T07:34:20;12.65;;;5.97;;
45728;SDS011;31439;53.512;10.206;2023-02-28T07:36:46;10.32;;;5.95;;
45728;SDS011;31439;53.512;10.206;2023-02-28T07:39:12;10.35;;;5.78;;
45728;SDS011;31439;53.512;10.206;2023-02-28T07:41:38;9.52;;;5.40;;
45728;SDS011;31439;53.512;10.206;2023-02-28T07:44:08;11.65;;;6.30;;
45728;SDS011;31439;53.512;10.206;2023-02-28T07:46:35;10.05;;;5.13;;
45728;SDS011;31439;53.512;10.206;2023-02-28T07:49:01;10.10;;;5.35;;
45728;SDS011;31439;53.512;10.206;2023-02-28T07:51:28;9.57;;;5.65;;
45728;SDS011;31439;53.512;10.206;2023-02-28T07:53:54;13.20;;;5.63;;
45728;SDS011;31439;53.512;10.206;2023-02-28T07:56:20;8.73;;;5.57;;
45728;SDS011;31439;53.512;10.206;2023-02-28T07:58:46;9.02;;;5.60;;
45728;SDS011;31439;53.512;10.206;2023-02-28T08:01:12;10.10;;;5.97;;
45728;SDS011;31439;53.512;10.206;2023-02-28T08:03:38;12.75;;;6.28;;
45728;SDS011;31439;53.512;10.206;2023-02-28T08:06:05;12.25;;;5.78;;
45728;SDS011;31439;53.512;10.206;2023-02-28T08:08:32;12.30;;;5.57;;
45728;SDS011;31439;53.512;10.206;2023-02-28T08:10:59;11.00;;;5.97;;
45728;SDS011;31439;53.512;10.206;2023-02-28T08:13:26;11.45;;;6.55;;
45728;SDS011;31439;53.512;10.206;2023-02-28T08:15:53;10.20;;;5.55;;
45728;SDS011;31439;53.512;10.206;2023-02-28T08:18:19;9.73;;;5.82;;
45728;SDS011;31439;53.512;10.206;2023-02-28T08:20:46;12.20;;;6.10;;
45728;SDS011;31439;53.512;10.206;2023-02-28T08:23:11;10.25;;;5.85;;
45728;SDS011;31439;53.512;10.206;2023-02-28T08:25:37;10.98;;;5.50;;
45728;SDS011;31439;53.512;10.206;2023-02-28T08:28:03;11.52;;;5.88;;
45728;SDS011;31439;53.512;10.206;2023-02-28T08:30:29;15.63;;;5.63;;
45728;SDS011;31439;53.512;10.206;2023-02-28T08:32:54;10.40;;;5.13;;
45728;SDS011;31439;53.512;10.206;2023-02-28T08:35:20;8.82;;;4.85;;
45728;SDS011;31439;53.512;10.206;2023-02-28T08:37:49;11.02;;;5.03;;
45728;SDS011;31439;53.512;10.206;2023-02-28T08:40:15;8.73;;;4.55;;
45728;SDS011;31439;53.512;10.206;2023-02-28T08:42:44;9.07;;;4.85;;
45728;SDS011;31439;53.512;10.206;2023-02-28T08:45:10;8.45;;;4.78;;
45728;SDS011;31439;53.512;10.206;2023-02-28T08:47:36;9.10;;;4.63;;
45728;SDS011;31439;53.512;10.206;2023-02-28T08:50:02;8.73;;;4.70;;
45728;SDS011;31439;53.512;10.206;2023-02-28T08:52:28;9.45;;;4.57;;
45728;SDS011;31439;53.512;10.206;2023-02-28T08:54:54;8.20;;;4.53;;
45728;SDS011;31439;53.512;10.206;2023-02-28T08:57:19;10.18;;;4.65;;
45728;SDS011;31439;53.512;10.206;2023-02-28T08:59:45;8.02;;;4.72;;
45728;SDS011;31439;53.512;10.206;2023-02-28T09:02:14;6.97;;;3.83;;
45728;SDS011;31439;53.512;10.206;2023-02-28T09:04:40;7.95;;;3.90;;
45728;SDS011;31439;53.512;10.206;2023-02-28T09:07:06;9.52;;;4.47;;
45728;SDS011;31439;53.512;10.206;2023-02-28T09:09:32;9.63;;;5.10;;
45728;SDS011;31439;53.512;10.206;2023-02-28T09:11:58;10.63;;;5.20;;
45728;SDS011;31439;53.512;10.206;2023-02-28T09:14:23;9.10;;;3.80;;
45728;SDS011;31439;53.512;10.206;2023-02-28T09:16:49;7.65;;;4.20;;
45728;SDS011;31439;53.512;10.206;2023-02-28T09:19:15;7.95;;;4.20;;
45728;SDS011;31439;53.512;10.206;2023-02-28T09:21:41;6.97;;;3.70;;
45728;SDS011;31439;53.512;10.206;2023-02-28T09:24:06;6.20;;;2.60;;
45728;SDS011;31439;53.512;10.206;2023-02-28T09:26:32;5.25;;;2.70;;
45728;SDS011;31439;53.512;10.206;2023-02-28T09:28:59;6.15;;;3.00;;
45728;SDS011;31439;53.512;10.206;2023-02-28T09:31:27;6.60;;;3.30;;
45728;SDS011;31439;53.512;10.206;2023-02-28T09:33:54;4.35;;;2.00;;
45728;SDS011;31439;53.512;10.206;2023-02-28T09:36:22;5.03;;;2.22;;
45728;SDS011;31439;53.512;10.206;2023-02-28T09:38:51;7.38;;;2.60;;
45728;SDS011;31439;53.512;10.206;2023-02-28T09:41:24;7.13;;;2.97;;
45728;SDS011;31439;53.512;10.206;2023-02-28T09:43:56;8.77;;;2.78;;
45728;SDS011;31439;53.512;10.206;2023-02-28T09:49:02;3.92;;;1.90;;
45728;SDS011;31439;53.512;10.206;2023-02-28T09:54:19;4.53;;;1.70;;
45728;SDS011;31439;53.512;10.206;2023-02-28T09:59:36;3.38;;;1.45;;
45728;SDS011;31439;53.512;10.206;2023-02-28T10:05:07;3.00;;;1.40;;
45728;SDS011;31439;53.512;10.206;2023-02-28T10:10:40;1.60;;;1.02;;
45728;SDS011;31439;53.512;10.206;2023-02-28T10:13:19;2.50;;;1.10;;
45728;SDS011;31439;53.512;10.206;2023-02-28T10:15:51;0.98;;;0.63;;
45728;SDS011;31439;53.512;10.206;2023-02-28T10:18:21;8.73;;;1.17;;
45728;SDS011;31439;53.512;10.206;2023-02-28T10:20:51;3.20;;;1.20;;
45728;SDS011;31439;53.512;10.206;2023-02-28T10:23:21;2.25;;;1.15;;
45728;SDS011;31439;53.512;10.206;2023-02-28T10:25:55;1.98;;;1.05;;
45728;SDS011;31439;53.512;10.206;2023-02-28T10:30:53;3.10;;;1.10;;
45728;SDS011;31439;53.512;10.206;2023-02-28T10:33:24;1.70;;;1.17;;
45728;SDS011;31439;53.512;10.206;2023-02-28T10:35:53;3.25;;;1.70;;
45728;SDS011;31439;53.512;10.206;2023-02-28T10:38:25;3.03;;;1.58;;
45728;SDS011;31439;53.512;10.206;2023-02-28T10:41:00;2.13;;;1.40;;
45728;SDS011;31439;53.512;10.206;2023-02-28T10:43:33;3.50;;;1.65;;
45728;SDS011;31439;53.512;10.206;2023-02-28T10:48:34;5.60;;;2.70;;
45728;SDS011;31439;53.512;10.206;2023-02-28T10:51:01;3.65;;;1.80;;
45728;SDS011;31439;53.512;10.206;2023-02-28T10:53:39;2.90;;;1.50;;
45728;SDS011;31439;53.512;10.206;2023-02-28T10:56:18;2.22;;;1.48;;
45728;SDS011;31439;53.512;10.206;2023-02-28T10:58:58;3.03;;;1.50;;
45728;SDS011;31439;53.512;10.206;2023-02-28T11:01:40;3.53;;;1.50;;
45728;SDS011;31439;53.512;10.206;2023-02-28T11:04:31;3.05;;;1.60;;
45728;SDS011;31439;53.512;10.206;2023-02-28T11:07:02;1.60;;;1.10;;
45728;SDS011;31439;53.512;10.206;2023-02-28T11:09:44;3.70;;;1.40;;
45728;SDS011;31439;53.512;10.206;2023-02-28T11:12:29;3.65;;;1.65;;
45728;SDS011;31439;53.512;10.206;2023-02-28T11:15:03;2.35;;;1.25;;
45728;SDS011;31439;53.512;10.206;2023-02-28T11:17:31;2.97;;;1.50;;
45728;SDS011;31439;53.512;10.206;2023-02-28T11:20:04;2.92;;;1.42;;
45728;SDS011;31439;53.512;10.206;2023-02-28T11:22:35;3.13;;;1.40;;
45728;SDS011;31439;53.512;10.206;2023-02-28T11:25:16;3.30;;;1.45;;
45728;SDS011;31439;53.512;10.206;2023-02-28T11:27:54;3.65;;;1.50;;
45728;SDS011;31439;53.512;10.206;2023-02-28T11:32:56;2.90;;;1.48;;
45728;SDS011;31439;53.512;10.206;2023-02-28T11:38:05;3.00;;;1.50;;
45728;SDS011;31439;53.512;10.206;2023-02-28T11:43:33;3.55;;;2.08;;
45728;SDS011;31439;53.512;10.206;2023-02-28T11:48:49;4.32;;;1.50;;
45728;SDS011;31439;53.512;10.206;2023-02-28T11:51:42;3.63;;;1.58;;
45728;SDS011;31439;53.512;10.206;2023-02-28T11:54:21;3.50;;;1.50;;
45728;SDS011;31439;53.512;10.206;2023-02-28T11:56:52;3.55;;;1.55;;
45728;SDS011;31439;53.512;10.206;2023-02-28T12:02:36;4.65;;;1.70;;
45728;SDS011;31439;53.512;10.206;2023-02-28T12:10:28;2.58;;;1.60;;
45728;SDS011;31439;53.512;10.206;2023-02-28T12:21:38;4.38;;;1.70;;
45728;SDS011;31439;53.512;10.206;2023-02-28T12:26:56;3.75;;;1.60;;
45728;SDS011;31439;53.512;10.206;2023-02-28T12:32:36;2.70;;;1.63;;
45728;SDS011;31439;53.512;10.206;2023-02-28T12:37:37;4.18;;;1.70;;
45728;SDS011;31439;53.512;10.206;2023-02-28T12:40:19;5.80;;;1.70;;
45728;SDS011;31439;53.512;10.206;2023-02-28T12:43:00;8.50;;;1.60;;
45728;SDS011;31439;53.512;10.206;2023-02-28T12:51:54;3.33;;;1.65;;
45728;SDS011;31439;53.512;10.206;2023-02-28T12:55:26;4.07;;;1.60;;
45728;SDS011;31439;53.512;10.206;2023-02-28T13:00:18;3.22;;;1.55;;
45728;SDS011;31439;53.512;10.206;2023-02-28T13:03:06;3.80;;;1.80;;
45728;SDS011;31439;53.512;10.206;2023-02-28T13:05:39;3.47;;;1.92;;
45728;SDS011;31439;53.512;10.206;2023-02-28T13:08:36;2.70;;;1.55;;
45728;SDS011;31439;53.512;10.206;2023-02-28T13:11:34;3.60;;;1.83;;
45728;SDS011;31439;53.512;10.206;2023-02-28T13:14:16;4.55;;;2.00;;
45728;SDS011;31439;53.512;10.206;2023-02-28T13:17:11;5.25;;;1.90;;
45728;SDS011;31439;53.512;10.206;2023-02-28T13:29:58;2.92;;;1.67;;
45728;SDS011;31439;53.512;10.206;2023-02-28T13:39:51;3.45;;;1.60;;
45728;SDS011;31439;53.512;10.206;2023-02-28T13:42:22;3.15;;;1.73;;
45728;SDS011;31439;53.512;10.206;2023-02-28T13:47:39;3.65;;;1.70;;
45728;SDS011;31439;53.512;10.206;2023-02-28T13:55:27;4.03;;;1.88;;
45728;SDS011;31439;53.512;10.206;2023-02-28T13:59:04;3.30;;;1.75;;
45728;SDS011;31439;53.512;10.206;2023-02-28T14:01:45;3.28;;;1.70;;
45728;SDS011;31439;53.512;10.206;2023-02-28T14:07:01;3.70;;;1.63;;
45728;SDS011;31439;53.512;10.206;2023-02-28T14:09:29;6.45;;;1.90;;
45728;SDS011;31439;53.512;10.206;2023-02-28T14:15:30;3.53;;;1.75;;
45728;SDS011;31439;53.512;10.206;2023-02-28T14:18:25;4.72;;;1.95;;
45728;SDS011;31439;53.512;10.206;2023-02-28T14:34:36;5.20;;;1.55;;
45728;SDS011;31439;53.512;10.206;2023-02-28T14:37:26;3.28;;;1.73;;
45728;SDS011;31439;53.512;10.206;2023-02-28T14:39:55;5.22;;;1.75;;
45728;SDS011;31439;53.512;10.206;2023-02-28T14:42:27;6.45;;;1.80;;
45728;SDS011;31439;53.512;10.206;2023-02-28T14:44:58;4.10;;;2.15;;
45728;SDS011;31439;53.512;10.206;2023-02-28T14:47:25;6.18;;;1.80;;
45728;SDS011;31439;53.512;10.206;2023-02-28T14:49:55;4.20;;;1.75;;
45728;SDS011;31439;53.512;10.206;2023-02-28T14:52:27;3.22;;;1.75;;
45728;SDS011;31439;53.512;10.206;2023-02-28T14:54:58;4.88;;;2.05;;
45728;SDS011;31439;53.512;10.206;2023-02-28T15:02:45;6.30;;;2.28;;
45728;SDS011;31439;53.512;10.206;2023-02-28T15:07:42;5.55;;;1.90;;
45728;SDS011;31439;53.512;10.206;2023-02-28T15:12:50;2.88;;;1.55;;
45728;SDS011;31439;53.512;10.206;2023-02-28T15:15:16;3.60;;;1.77;;
45728;SDS011;31439;53.512;10.206;2023-02-28T15:17:50;2.15;;;1.52;;
45728;SDS011;31439;53.512;10.206;2023-02-28T15:20:19;3.15;;;1.50;;
45728;SDS011;31439;53.512;10.206;2023-02-28T15:22:46;2.97;;;1.38;;
45728;SDS011;31439;53.512;10.206;2023-02-28T15:25:15;3.47;;;1.60;;
45728;SDS011;31439;53.512;10.206;2023-02-28T15:27:45;3.80;;;1.73;;
45728;SDS011;31439;53.512;10.206;2023-02-28T15:30:15;2.53;;;1.45;;
45728;SDS011;31439;53.512;10.206;2023-02-28T15:33:01;3.80;;;1.42;;
45728;SDS011;31439;53.512;10.206;2023-02-28T15:35:36;3.35;;;2.03;;
45728;SDS011;31439;53.512;10.206;2023-02-28T15:38:16;2.53;;;1.58;;
45728;SDS011;31439;53.512;10.206;2023-02-28T15:40:53;5.10;;;2.00;;
45728;SDS011;31439;53.512;10.206;2023-02-28T15:43:24;4.50;;;1.85;;
45728;SDS011;31439;53.512;10.206;2023-02-28T15:46:01;5.70;;;1.67;;
45728;SDS011;31439;53.512;10.206;2023-02-28T15:48:43;3.90;;;2.05;;
45728;SDS011;31439;53.512;10.206;2023-02-28T15:56:26;4.38;;;2.13;;
45728;SDS011;31439;53.512;10.206;2023-02-28T15:59:04;3.83;;;1.75;;
45728;SDS011;31439;53.512;10.206;2023-02-28T16:01:32;2.58;;;1.67;;
45728;SDS011;31439;53.512;10.206;2023-02-28T16:04:05;3.00;;;1.85;;
45728;SDS011;31439;53.512;10.206;2023-02-28T16:06:38;6.68;;;1.90;;
45728;SDS011;31439;53.512;10.206;2023-02-28T16:09:24;8.02;;;2.00;;
45728;SDS011;31439;53.512;10.206;2023-02-28T16:11:52;5.57;;;2.22;;
45728;SDS011;31439;53.512;10.206;2023-02-28T16:14:20;6.28;;;2.28;;
45728;SDS011;31439;53.512;10.206;2023-02-28T16:16:49;6.90;;;2.90;;
45728;SDS011;31439;53.512;10.206;2023-02-28T16:19:20;4.10;;;2.10;;
45728;SDS011;31439;53.512;10.206;2023-02-28T16:21:46;4.95;;;2.10;;
45728;SDS011;31439;53.512;10.206;2023-02-28T16:24:11;4.32;;;2.30;;
45728;SDS011;31439;53.512;10.206;2023-02-28T16:26:38;7.18;;;2.40;;
45728;SDS011;31439;53.512;10.206;2023-02-28T16:29:05;3.75;;;2.20;;
45728;SDS011;31439;53.512;10.206;2023-02-28T16:31:33;6.28;;;2.45;;
45728;SDS011;31439;53.512;10.206;2023-02-28T16:34:02;4.85;;;2.50;;
45728;SDS011;31439;53.512;10.206;2023-02-28T16:36:28;4.85;;;2.42;;
45728;SDS011;31439;53.512;10.206;2023-02-28T16:38:54;4.72;;;2.30;;
45728;SDS011;31439;53.512;10.206;2023-02-28T16:41:21;5.93;;;1.95;;
45728;SDS011;31439;53.512;10.206;2023-02-28T16:43:50;3.92;;;2.22;;
45728;SDS011;31439;53.512;10.206;2023-02-28T16:46:18;4.70;;;2.65;;
45728;SDS011;31439;53.512;10.206;2023-02-28T16:48:45;4.13;;;2.50;;
45728;SDS011;31439;53.512;10.206;2023-02-28T16:51:14;6.20;;;2.53;;
45728;SDS011;31439;53.512;10.206;2023-02-28T16:53:41;5.18;;;2.50;;
45728;SDS011;31439;53.512;10.206;2023-02-28T16:56:11;6.75;;;2.60;;
45728;SDS011;31439;53.512;10.206;2023-02-28T16:58:46;5.10;;;2.60;;
45728;SDS011;31439;53.512;10.206;2023-02-28T17:01:12;6.95;;;2.53;;
45728;SDS011;31439;53.512;10.206;2023-02-28T17:03:39;5.50;;;2.60;;
45728;SDS011;31439;53.512;10.206;2023-02-28T17:06:05;7.88;;;2.45;;
45728;SDS011;31439;53.512;10.206;2023-02-28T17:08:41;4.95;;;2.28;;
45728;SDS011;31439;53.512;10.206;2023-02-28T17:11:07;6.15;;;2.60;;
45728;SDS011;31439;53.512;10.206;2023-02-28T17:13:33;5.57;;;2.53;;
45728;SDS011;31439;53.512;10.206;2023-02-28T17:15:59;5.35;;;2.58;;
45728;SDS011;31439;53.512;10.206;2023-02-28T17:18:25;4.88;;;2.40;;
45728;SDS011;31439;53.512;10.206;2023-02-28T17:20:53;5.63;;;2.75;;
45728;SDS011;31439;53.512;10.206;2023-02-28T17:23:19;5.20;;;2.78;;
45728;SDS011;31439;53.512;10.206;2023-02-28T17:25:45;5.60;;;2.60;;
45728;SDS011;31439;53.512;10.206;2023-02-28T17:28:18;6.88;;;2.53;;
45728;SDS011;31439;53.512;10.206;2023-02-28T17:30:45;4.10;;;2.38;;
45728;SDS011;31439;53.512;10.206;2023-02-28T17:33:12;5.82;;;3.20;;
45728;SDS011;31439;53.512;10.206;2023-02-28T17:35:38;4.55;;;2.60;;